sensor_id;sensor_type;location;lat;lon;timestamp;P1;durP1;ratioP1;P2;durP2;ratioP2
28130;SDS011;15418;42.634;23.374;2022-09-30T00:01:51;23.50;;;11.07;;
28130;SDS011;15418;42.634;23.374;2022-09-30T00:04:21;17.67;;;11.80;;
28130;SDS011;15418;42.634;23.374;2022-09-30T00:06:51;14.20;;;11.05;;
28130;SDS011;15418;42.634;23.374;2022-09-30T00:09:17;18.13;;;10.57;;
28130;SDS011;15418;42.634;23.374;2022-09-30T00:11:45;19.00;;;11.13;;
28130;SDS011;15418;42.634;23.374;2022-09-30T00:14:28;19.02;;;10.57;;
28130;SDS011;15418;42.634;23.374;2022-09-30T00:17:01;14.95;;;10.40;;
28130;SDS011;15418;42.634;23.374;2022-09-30T00:19:30;13.57;;;8.48;;
28130;SDS011;15418;42.634;23.374;2022-09-30T00:22:00;13.77;;;8.15;;
28130;SDS011;15418;42.634;23.374;2022-09-30T00:24:27;12.20;;;8.70;;
28130;SDS011;15418;42.634;23.374;2022-09-30T00:27:00;14.63;;;9.13;;
28130;SDS011;15418;42.634;23.374;2022-09-30T00:29:28;16.05;;;9.85;;
28130;SDS011;15418;42.634;23.374;2022-09-30T00:31:56;16.23;;;8.88;;
28130;SDS011;15418;42.634;23.374;2022-09-30T00:34:22;11.07;;;7.95;;
28130;SDS011;15418;42.634;23.374;2022-09-30T00:36:53;16.55;;;8.80;;
28130;SDS011;15418;42.634;23.374;2022-09-30T00:39:27;14.43;;;9.15;;
28130;SDS011;15418;42.634;23.374;2022-09-30T00:42:02;13.57;;;9.43;;
28130;SDS011;15418;42.634;23.374;2022-09-30T00:50:18;13.35;;;7.95;;
28130;SDS011;15418;42.634;23.374;2022-09-30T00:58:55;15.13;;;10.05;;
28130;SDS011;15418;42.634;23.374;2022-09-30T01:01:27;19.73;;;13.20;;
28130;SDS011;15418;42.634;23.374;2022-09-30T01:03:56;21.95;;;14.40;;
28130;SDS011;15418;42.634;23.374;2022-09-30T01:06:54;21.43;;;13.33;;
28130;SDS011;15418;42.634;23.374;2022-09-30T01:09:30;16.70;;;11.93;;
28130;SDS011;15418;42.634;23.374;2022-09-30T01:12:12;20.55;;;12.25;;
28130;SDS011;15418;42.634;23.374;2022-09-30T01:14:51;17.85;;;11.73;;
28130;SDS011;15418;42.634;23.374;2022-09-30T01:26:35;11.20;;;7.72;;
28130;SDS011;15418;42.634;23.374;2022-09-30T01:29:38;16.77;;;8.93;;
28130;SDS011;15418;42.634;23.374;2022-09-30T01:32:35;12.40;;;7.93;;
28130;SDS011;15418;42.634;23.374;2022-09-30T01:41:29;16.17;;;8.82;;
28130;SDS011;15418;42.634;23.374;2022-09-30T01:46:36;14.80;;;9.38;;
28130;SDS011;15418;42.634;23.374;2022-09-30T01:49:17;14.45;;;8.88;;
28130;SDS011;15418;42.634;23.374;2022-09-30T01:57:40;14.25;;;9.00;;
28130;SDS011;15418;42.634;23.374;2022-09-30T02:00:14;18.60;;;9.10;;
28130;SDS011;15418;42.634;23.374;2022-09-30T02:02:48;12.48;;;9.00;;
28130;SDS011;15418;42.634;23.374;2022-09-30T02:05:19;12.23;;;9.82;;
28130;SDS011;15418;42.634;23.374;2022-09-30T02:07:50;14.38;;;9.70;;
28130;SDS011;15418;42.634;23.374;2022-09-30T02:10:23;12.45;;;9.65;;
28130;SDS011;15418;42.634;23.374;2022-09-30T02:12:53;15.68;;;9.90;;
28130;SDS011;15418;42.634;23.374;2022-09-30T02:15:39;14.25;;;9.68;;
28130;SDS011;15418;42.634;23.374;2022-09-30T02:18:14;13.18;;;9.55;;
28130;SDS011;15418;42.634;23.374;2022-09-30T02:20:48;19.45;;;9.88;;
28130;SDS011;15418;42.634;23.374;2022-09-30T02:23:27;13.68;;;10.48;;
28130;SDS011;15418;42.634;23.374;2022-09-30T02:26:06;15.13;;;10.80;;
28130;SDS011;15418;42.634;23.374;2022-09-30T02:28:40;16.38;;;10.27;;
28130;SDS011;15418;42.634;23.374;2022-09-30T02:31:10;14.75;;;9.98;;
28130;SDS011;15418;42.634;23.374;2022-09-30T02:33:41;19.10;;;9.90;;
28130;SDS011;15418;42.634;23.374;2022-09-30T02:36:33;22.30;;;10.18;;
28130;SDS011;15418;42.634;23.374;2022-09-30T02:39:12;14.55;;;9.95;;
28130;SDS011;15418;42.634;23.374;2022-09-30T02:42:03;15.23;;;9.95;;
28130;SDS011;15418;42.634;23.374;2022-09-30T02:44:36;15.23;;;9.35;;
28130;SDS011;15418;42.634;23.374;2022-09-30T02:52:23;18.65;;;11.07;;
28130;SDS011;15418;42.634;23.374;2022-09-30T02:55:18;21.35;;;10.60;;
28130;SDS011;15418;42.634;23.374;2022-09-30T03:00:38;16.65;;;9.98;;
28130;SDS011;15418;42.634;23.374;2022-09-30T03:03:06;11.88;;;9.55;;
28130;SDS011;15418;42.634;23.374;2022-09-30T03:05:40;16.17;;;10.98;;
28130;SDS011;15418;42.634;23.374;2022-09-30T03:08:07;20.23;;;11.93;;
28130;SDS011;15418;42.634;23.374;2022-09-30T03:10:34;16.75;;;10.82;;
28130;SDS011;15418;42.634;23.374;2022-09-30T03:16:10;23.55;;;11.48;;
28130;SDS011;15418;42.634;23.374;2022-09-30T03:21:07;19.75;;;12.88;;
28130;SDS011;15418;42.634;23.374;2022-09-30T03:23:58;31.13;;;14.65;;
28130;SDS011;15418;42.634;23.374;2022-09-30T03:29:10;28.52;;;15.45;;
28130;SDS011;15418;42.634;23.374;2022-09-30T03:31:51;23.17;;;13.43;;
28130;SDS011;15418;42.634;23.374;2022-09-30T03:34:48;31.77;;;16.10;;
28130;SDS011;15418;42.634;23.374;2022-09-30T03:37:56;36.92;;;19.23;;
28130;SDS011;15418;42.634;23.374;2022-09-30T03:43:03;38.08;;;20.85;;
28130;SDS011;15418;42.634;23.374;2022-09-30T03:45:41;54.13;;;25.00;;
28130;SDS011;15418;42.634;23.374;2022-09-30T03:48:29;100.55;;;25.05;;
28130;SDS011;15418;42.634;23.374;2022-09-30T03:50:58;87.75;;;27.25;;
28130;SDS011;15418;42.634;23.374;2022-09-30T03:53:43;155.18;;;25.63;;
28130;SDS011;15418;42.634;23.374;2022-09-30T04:00:17;149.93;;;25.92;;
28130;SDS011;15418;42.634;23.374;2022-09-30T04:02:50;163.35;;;25.42;;
28130;SDS011;15418;42.634;23.374;2022-09-30T04:05:16;110.45;;;24.08;;
28130;SDS011;15418;42.634;23.374;2022-09-30T04:14:39;109.47;;;40.53;;
28130;SDS011;15418;42.634;23.374;2022-09-30T04:17:09;141.18;;;28.33;;
28130;SDS011;15418;42.634;23.374;2022-09-30T04:19:35;265.58;;;26.83;;
28130;SDS011;15418;42.634;23.374;2022-09-30T04:22:05;339.42;;;26.63;;
28130;SDS011;15418;42.634;23.374;2022-09-30T04:24:34;163.73;;;23.33;;
28130;SDS011;15418;42.634;23.374;2022-09-30T04:27:00;124.47;;;22.92;;
28130;SDS011;15418;42.634;23.374;2022-09-30T04:29:26;103.10;;;24.33;;
28130;SDS011;15418;42.634;23.374;2022-09-30T04:34:39;147.50;;;21.48;;
28130;SDS011;15418;42.634;23.374;2022-09-30T04:37:14;307.80;;;30.50;;
28130;SDS011;15418;42.634;23.374;2022-09-30T04:39:44;239.30;;;33.13;;
28130;SDS011;15418;42.634;23.374;2022-09-30T04:42:12;116.13;;;26.65;;
28130;SDS011;15418;42.634;23.374;2022-09-30T04:44:38;100.13;;;27.92;;
28130;SDS011;15418;42.634;23.374;2022-09-30T04:47:23;144.75;;;27.52;;
28130;SDS011;15418;42.634;23.374;2022-09-30T04:49:54;133.00;;;27.05;;
28130;SDS011;15418;42.634;23.374;2022-09-30T04:52:26;119.07;;;28.35;;
28130;SDS011;15418;42.634;23.374;2022-09-30T04:55:16;96.75;;;27.25;;
28130;SDS011;15418;42.634;23.374;2022-09-30T04:57:45;105.68;;;24.10;;
28130;SDS011;15418;42.634;23.374;2022-09-30T05:00:13;96.70;;;22.70;;
28130;SDS011;15418;42.634;23.374;2022-09-30T05:02:41;97.68;;;28.23;;
28130;SDS011;15418;42.634;23.374;2022-09-30T05:05:13;73.90;;;28.02;;
28130;SDS011;15418;42.634;23.374;2022-09-30T05:07:39;65.18;;;27.45;;
28130;SDS011;15418;42.634;23.374;2022-09-30T05:10:06;102.57;;;25.77;;
28130;SDS011;15418;42.634;23.374;2022-09-30T05:12:35;74.68;;;25.02;;
28130;SDS011;15418;42.634;23.374;2022-09-30T05:15:07;360.40;;;30.80;;
28130;SDS011;15418;42.634;23.374;2022-09-30T05:17:34;211.65;;;29.52;;
28130;SDS011;15418;42.634;23.374;2022-09-30T05:20:00;65.65;;;30.35;;
28130;SDS011;15418;42.634;23.374;2022-09-30T05:25:04;65.38;;;29.27;;
28130;SDS011;15418;42.634;23.374;2022-09-30T05:27:32;54.80;;;25.38;;
28130;SDS011;15418;42.634;23.374;2022-09-30T05:30:06;49.97;;;27.08;;
28130;SDS011;15418;42.634;23.374;2022-09-30T05:32:32;55.28;;;27.27;;
28130;SDS011;15418;42.634;23.374;2022-09-30T05:34:59;109.40;;;30.20;;
28130;SDS011;15418;42.634;23.374;2022-09-30T05:37:27;51.80;;;28.65;;
28130;SDS011;15418;42.634;23.374;2022-09-30T05:39:54;52.90;;;26.95;;
28130;SDS011;15418;42.634;23.374;2022-09-30T05:42:19;50.47;;;25.50;;
28130;SDS011;15418;42.634;23.374;2022-09-30T05:44:45;48.95;;;29.33;;
28130;SDS011;15418;42.634;23.374;2022-09-30T05:47:13;49.30;;;27.67;;
28130;SDS011;15418;42.634;23.374;2022-09-30T05:49:41;121.82;;;29.73;;
28130;SDS011;15418;42.634;23.374;2022-09-30T05:52:07;62.92;;;32.47;;
28130;SDS011;15418;42.634;23.374;2022-09-30T05:54:33;102.20;;;32.63;;
28130;SDS011;15418;42.634;23.374;2022-09-30T05:57:00;67.05;;;32.40;;
28130;SDS011;15418;42.634;23.374;2022-09-30T05:59:26;120.43;;;31.30;;
28130;SDS011;15418;42.634;23.374;2022-09-30T06:01:52;120.25;;;34.78;;
28130;SDS011;15418;42.634;23.374;2022-09-30T06:04:19;98.18;;;34.17;;
28130;SDS011;15418;42.634;23.374;2022-09-30T06:06:47;70.32;;;37.75;;
28130;SDS011;15418;42.634;23.374;2022-09-30T06:09:15;62.65;;;31.50;;
28130;SDS011;15418;42.634;23.374;2022-09-30T06:11:41;63.53;;;35.88;;
28130;SDS011;15418;42.634;23.374;2022-09-30T06:14:09;74.22;;;44.08;;
28130;SDS011;15418;42.634;23.374;2022-09-30T06:16:35;68.65;;;36.38;;
28130;SDS011;15418;42.634;23.374;2022-09-30T06:19:01;70.20;;;36.42;;
28130;SDS011;15418;42.634;23.374;2022-09-30T06:21:26;69.43;;;34.10;;
28130;SDS011;15418;42.634;23.374;2022-09-30T06:23:58;54.30;;;30.73;;
28130;SDS011;15418;42.634;23.374;2022-09-30T06:26:25;55.38;;;30.80;;
28130;SDS011;15418;42.634;23.374;2022-09-30T06:28:50;59.58;;;28.27;;
28130;SDS011;15418;42.634;23.374;2022-09-30T06:31:17;54.58;;;30.55;;
28130;SDS011;15418;42.634;23.374;2022-09-30T06:33:43;49.97;;;30.88;;
28130;SDS011;15418;42.634;23.374;2022-09-30T06:36:13;57.83;;;32.10;;
28130;SDS011;15418;42.634;23.374;2022-09-30T06:48:57;32.92;;;21.02;;
28130;SDS011;15418;42.634;23.374;2022-09-30T06:51:30;36.35;;;22.50;;
28130;SDS011;15418;42.634;23.374;2022-09-30T06:57:01;38.95;;;22.65;;
28130;SDS011;15418;42.634;23.374;2022-09-30T06:59:30;41.80;;;22.52;;
28130;SDS011;15418;42.634;23.374;2022-09-30T07:02:08;47.83;;;22.35;;
28130;SDS011;15418;42.634;23.374;2022-09-30T07:04:37;32.70;;;17.92;;
28130;SDS011;15418;42.634;23.374;2022-09-30T07:07:03;27.85;;;16.60;;
28130;SDS011;15418;42.634;23.374;2022-09-30T07:09:35;37.05;;;17.08;;
28130;SDS011;15418;42.634;23.374;2022-09-30T07:12:02;40.47;;;16.38;;
28130;SDS011;15418;42.634;23.374;2022-09-30T07:14:28;38.83;;;21.65;;
28130;SDS011;15418;42.634;23.374;2022-09-30T07:16:56;39.58;;;24.40;;
28130;SDS011;15418;42.634;23.374;2022-09-30T07:19:22;30.65;;;22.50;;
28130;SDS011;15418;42.634;23.374;2022-09-30T07:21:49;47.45;;;26.35;;
28130;SDS011;15418;42.634;23.374;2022-09-30T07:24:16;38.42;;;26.67;;
28130;SDS011;15418;42.634;23.374;2022-09-30T07:26:42;43.75;;;26.23;;
28130;SDS011;15418;42.634;23.374;2022-09-30T07:29:10;42.58;;;25.02;;
28130;SDS011;15418;42.634;23.374;2022-09-30T07:31:38;45.15;;;24.52;;
28130;SDS011;15418;42.634;23.374;2022-09-30T07:34:04;47.95;;;25.58;;
28130;SDS011;15418;42.634;23.374;2022-09-30T07:36:31;38.67;;;23.77;;
28130;SDS011;15418;42.634;23.374;2022-09-30T07:39:00;43.92;;;24.52;;
28130;SDS011;15418;42.634;23.374;2022-09-30T07:44:57;45.53;;;27.02;;
28130;SDS011;15418;42.634;23.374;2022-09-30T07:47:27;50.40;;;28.23;;
28130;SDS011;15418;42.634;23.374;2022-09-30T08:03:33;31.60;;;15.70;;
28130;SDS011;15418;42.634;23.374;2022-09-30T08:27:29;27.23;;;9.93;;
28130;SDS011;15418;42.634;23.374;2022-09-30T08:33:28;18.15;;;8.35;;
28130;SDS011;15418;42.634;23.374;2022-09-30T08:36:14;15.52;;;7.72;;
28130;SDS011;15418;42.634;23.374;2022-09-30T08:38:49;19.20;;;8.88;;
28130;SDS011;15418;42.634;23.374;2022-09-30T08:41:47;24.67;;;8.65;;
28130;SDS011;15418;42.634;23.374;2022-09-30T08:44:36;22.10;;;8.43;;
28130;SDS011;15418;42.634;23.374;2022-09-30T08:53:33;19.90;;;8.40;;
28130;SDS011;15418;42.634;23.374;2022-09-30T08:56:29;18.48;;;7.82;;
28130;SDS011;15418;42.634;23.374;2022-09-30T08:59:06;11.73;;;7.50;;
28130;SDS011;15418;42.634;23.374;2022-09-30T09:04:57;15.75;;;7.68;;
28130;SDS011;15418;42.634;23.374;2022-09-30T09:07:39;21.55;;;9.88;;
28130;SDS011;15418;42.634;23.374;2022-09-30T09:19:28;14.57;;;7.07;;
28130;SDS011;15418;42.634;23.374;2022-09-30T09:22:50;13.57;;;6.63;;
28130;SDS011;15418;42.634;23.374;2022-09-30T09:25:18;13.60;;;6.40;;
28130;SDS011;15418;42.634;23.374;2022-09-30T09:27:55;17.70;;;6.40;;
28130;SDS011;15418;42.634;23.374;2022-09-30T09:30:35;17.17;;;8.30;;
28130;SDS011;15418;42.634;23.374;2022-09-30T09:33:29;16.00;;;8.20;;
28130;SDS011;15418;42.634;23.374;2022-09-30T09:42:00;17.38;;;7.13;;
28130;SDS011;15418;42.634;23.374;2022-09-30T09:44:35;13.18;;;6.55;;
28130;SDS011;15418;42.634;23.374;2022-09-30T09:47:21;16.10;;;6.60;;
28130;SDS011;15418;42.634;23.374;2022-09-30T09:49:54;16.33;;;6.72;;
28130;SDS011;15418;42.634;23.374;2022-09-30T09:58:09;13.40;;;6.25;;
28130;SDS011;15418;42.634;23.374;2022-09-30T10:00:38;11.27;;;6.07;;
28130;SDS011;15418;42.634;23.374;2022-09-30T10:03:16;17.75;;;7.43;;
28130;SDS011;15418;42.634;23.374;2022-09-30T10:08:32;13.30;;;7.47;;
28130;SDS011;15418;42.634;23.374;2022-09-30T10:11:23;13.77;;;7.40;;
28130;SDS011;15418;42.634;23.374;2022-09-30T10:16:56;15.73;;;6.13;;
28130;SDS011;15418;42.634;23.374;2022-09-30T10:19:24;9.43;;;5.43;;
28130;SDS011;15418;42.634;23.374;2022-09-30T10:28:44;10.55;;;4.53;;
28130;SDS011;15418;42.634;23.374;2022-09-30T10:30:48;20.35;;;6.20;;
28130;SDS011;15418;42.634;23.374;2022-09-30T10:33:29;11.18;;;4.50;;
28130;SDS011;15418;42.634;23.374;2022-09-30T10:38:30;7.38;;;4.13;;
28130;SDS011;15418;42.634;23.374;2022-09-30T10:40:58;11.88;;;3.70;;
28130;SDS011;15418;42.634;23.374;2022-09-30T10:43:26;22.80;;;7.45;;
28130;SDS011;15418;42.634;23.374;2022-09-30T10:45:59;16.48;;;5.03;;
28130;SDS011;15418;42.634;23.374;2022-09-30T10:48:32;11.75;;;5.75;;
28130;SDS011;15418;42.634;23.374;2022-09-30T10:50:59;14.98;;;6.35;;
28130;SDS011;15418;42.634;23.374;2022-09-30T10:53:26;18.35;;;6.47;;
28130;SDS011;15418;42.634;23.374;2022-09-30T10:55:54;17.13;;;9.65;;
28130;SDS011;15418;42.634;23.374;2022-09-30T11:06:50;9.23;;;4.45;;
28130;SDS011;15418;42.634;23.374;2022-09-30T11:09:39;7.85;;;4.28;;
28130;SDS011;15418;42.634;23.374;2022-09-30T11:12:16;9.85;;;4.93;;
28130;SDS011;15418;42.634;23.374;2022-09-30T11:15:01;8.30;;;4.65;;
28130;SDS011;15418;42.634;23.374;2022-09-30T11:20:36;7.90;;;4.10;;
28130;SDS011;15418;42.634;23.374;2022-09-30T11:34:34;8.52;;;3.45;;
28130;SDS011;15418;42.634;23.374;2022-09-30T11:48:46;12.75;;;7.38;;
28130;SDS011;15418;42.634;23.374;2022-09-30T11:51:39;6.05;;;3.47;;
28130;SDS011;15418;42.634;23.374;2022-09-30T11:54:37;11.82;;;3.70;;
28130;SDS011;15418;42.634;23.374;2022-09-30T11:57:10;10.57;;;3.33;;
28130;SDS011;15418;42.634;23.374;2022-09-30T12:02:12;15.30;;;3.58;;
28130;SDS011;15418;42.634;23.374;2022-09-30T12:04:52;8.02;;;3.10;;
28130;SDS011;15418;42.634;23.374;2022-09-30T12:07:37;16.52;;;3.53;;
28130;SDS011;15418;42.634;23.374;2022-09-30T12:10:18;10.93;;;3.40;;
28130;SDS011;15418;42.634;23.374;2022-09-30T12:12:45;8.65;;;3.20;;
28130;SDS011;15418;42.634;23.374;2022-09-30T12:15:17;13.25;;;3.15;;
28130;SDS011;15418;42.634;23.374;2022-09-30T12:17:50;9.38;;;2.80;;
28130;SDS011;15418;42.634;23.374;2022-09-30T12:23:02;10.10;;;3.27;;
28130;SDS011;15418;42.634;23.374;2022-09-30T12:25:42;6.53;;;2.65;;
28130;SDS011;15418;42.634;23.374;2022-09-30T12:28:22;5.68;;;2.20;;
28130;SDS011;15418;42.634;23.374;2022-09-30T12:36:49;7.07;;;2.15;;
28130;SDS011;15418;42.634;23.374;2022-09-30T12:48:39;6.97;;;2.13;;
28130;SDS011;15418;42.634;23.374;2022-09-30T12:57:03;6.28;;;2.25;;
28130;SDS011;15418;42.634;23.374;2022-09-30T12:59:46;10.68;;;2.20;;
28130;SDS011;15418;42.634;23.374;2022-09-30T13:02:30;23.38;;;2.95;;
28130;SDS011;15418;42.634;23.374;2022-09-30T13:10:33;11.85;;;2.58;;
28130;SDS011;15418;42.634;23.374;2022-09-30T13:34:11;7.50;;;2.20;;
28130;SDS011;15418;42.634;23.374;2022-09-30T13:36:57;6.65;;;1.80;;
28130;SDS011;15418;42.634;23.374;2022-09-30T13:39:27;13.70;;;2.42;;
28130;SDS011;15418;42.634;23.374;2022-09-30T13:48:04;6.15;;;2.45;;
28130;SDS011;15418;42.634;23.374;2022-09-30T13:50:42;5.57;;;1.77;;
28130;SDS011;15418;42.634;23.374;2022-09-30T13:53:18;6.20;;;2.25;;
28130;SDS011;15418;42.634;23.374;2022-09-30T13:55:51;7.43;;;2.00;;
28130;SDS011;15418;42.634;23.374;2022-09-30T14:00:59;5.13;;;1.77;;
28130;SDS011;15418;42.634;23.374;2022-09-30T14:04:12;16.10;;;4.22;;
28130;SDS011;15418;42.634;23.374;2022-09-30T14:21:46;6.80;;;1.73;;
28130;SDS011;15418;42.634;23.374;2022-09-30T14:24:26;14.15;;;2.53;;
28130;SDS011;15418;42.634;23.374;2022-09-30T14:33:23;14.00;;;2.80;;
28130;SDS011;15418;42.634;23.374;2022-09-30T14:35:52;10.05;;;2.28;;
28130;SDS011;15418;42.634;23.374;2022-09-30T14:38:22;17.35;;;6.55;;
28130;SDS011;15418;42.634;23.374;2022-09-30T14:40:56;13.00;;;4.00;;
28130;SDS011;15418;42.634;23.374;2022-09-30T14:43:30;16.83;;;3.00;;
28130;SDS011;15418;42.634;23.374;2022-09-30T14:46:07;8.23;;;2.70;;
28130;SDS011;15418;42.634;23.374;2022-09-30T14:48:45;5.47;;;1.92;;
28130;SDS011;15418;42.634;23.374;2022-09-30T14:51:13;5.05;;;1.67;;
28130;SDS011;15418;42.634;23.374;2022-09-30T14:53:56;4.97;;;1.90;;
28130;SDS011;15418;42.634;23.374;2022-09-30T14:56:27;5.53;;;1.80;;
28130;SDS011;15418;42.634;23.374;2022-09-30T14:59:30;9.60;;;2.03;;
28130;SDS011;15418;42.634;23.374;2022-09-30T15:04:50;12.57;;;2.53;;
28130;SDS011;15418;42.634;23.374;2022-09-30T15:07:18;7.35;;;1.83;;
28130;SDS011;15418;42.634;23.374;2022-09-30T15:09:44;5.72;;;1.80;;
28130;SDS011;15418;42.634;23.374;2022-09-30T15:12:12;10.73;;;2.90;;
28130;SDS011;15418;42.634;23.374;2022-09-30T15:15:00;10.25;;;2.53;;
28130;SDS011;15418;42.634;23.374;2022-09-30T15:17:36;6.63;;;2.00;;
28130;SDS011;15418;42.634;23.374;2022-09-30T15:23:05;9.05;;;2.15;;
28130;SDS011;15418;42.634;23.374;2022-09-30T15:25:40;6.78;;;2.08;;
28130;SDS011;15418;42.634;23.374;2022-09-30T15:28:08;10.35;;;2.70;;
28130;SDS011;15418;42.634;23.374;2022-09-30T15:30:36;13.23;;;2.50;;
28130;SDS011;15418;42.634;23.374;2022-09-30T15:35:43;10.15;;;1.90;;
28130;SDS011;15418;42.634;23.374;2022-09-30T16:00:33;8.40;;;3.05;;
28130;SDS011;15418;42.634;23.374;2022-09-30T16:12:51;10.52;;;3.05;;
28130;SDS011;15418;42.634;23.374;2022-09-30T16:15:57;14.32;;;3.38;;
28130;SDS011;15418;42.634;23.374;2022-09-30T16:18:53;11.77;;;3.00;;
28130;SDS011;15418;42.634;23.374;2022-09-30T16:21:40;9.15;;;3.30;;
28130;SDS011;15418;42.634;23.374;2022-09-30T16:27:25;6.60;;;2.97;;
28130;SDS011;15418;42.634;23.374;2022-09-30T16:30:33;19.13;;;6.20;;
28130;SDS011;15418;42.634;23.374;2022-09-30T16:33:02;9.38;;;3.25;;
28130;SDS011;15418;42.634;23.374;2022-09-30T16:35:31;16.33;;;4.28;;
28130;SDS011;15418;42.634;23.374;2022-09-30T16:38:00;6.10;;;2.50;;
28130;SDS011;15418;42.634;23.374;2022-09-30T16:40:30;10.93;;;4.50;;
28130;SDS011;15418;42.634;23.374;2022-09-30T16:43:00;14.20;;;2.70;;
28130;SDS011;15418;42.634;23.374;2022-09-30T16:45:29;5.78;;;3.05;;
28130;SDS011;15418;42.634;23.374;2022-09-30T16:47:59;24.10;;;4.38;;
28130;SDS011;15418;42.634;23.374;2022-09-30T16:50:42;16.90;;;3.15;;
28130;SDS011;15418;42.634;23.374;2022-09-30T16:53:32;8.55;;;2.03;;
28130;SDS011;15418;42.634;23.374;2022-09-30T16:55:59;7.95;;;2.30;;
28130;SDS011;15418;42.634;23.374;2022-09-30T16:58:24;9.32;;;4.90;;
28130;SDS011;15418;42.634;23.374;2022-09-30T17:00:50;8.95;;;3.30;;
28130;SDS011;15418;42.634;23.374;2022-09-30T17:03:17;7.93;;;2.90;;
28130;SDS011;15418;42.634;23.374;2022-09-30T17:05:46;8.38;;;2.13;;
28130;SDS011;15418;42.634;23.374;2022-09-30T17:08:20;8.30;;;3.70;;
28130;SDS011;15418;42.634;23.374;2022-09-30T17:10:49;9.93;;;3.25;;
28130;SDS011;15418;42.634;23.374;2022-09-30T17:13:48;19.42;;;4.60;;
28130;SDS011;15418;42.634;23.374;2022-09-30T17:16:37;12.73;;;3.95;;
28130;SDS011;15418;42.634;23.374;2022-09-30T17:19:06;20.52;;;4.40;;
28130;SDS011;15418;42.634;23.374;2022-09-30T17:21:43;17.42;;;4.63;;
28130;SDS011;15418;42.634;23.374;2022-09-30T17:24:09;9.98;;;3.63;;
28130;SDS011;15418;42.634;23.374;2022-09-30T17:26:41;7.88;;;3.97;;
28130;SDS011;15418;42.634;23.374;2022-09-30T17:29:08;12.95;;;4.15;;
28130;SDS011;15418;42.634;23.374;2022-09-30T17:31:40;11.88;;;4.10;;
28130;SDS011;15418;42.634;23.374;2022-09-30T17:34:09;13.18;;;5.28;;
28130;SDS011;15418;42.634;23.374;2022-09-30T17:36:35;13.25;;;4.45;;
28130;SDS011;15418;42.634;23.374;2022-09-30T17:39:11;11.13;;;4.90;;
28130;SDS011;15418;42.634;23.374;2022-09-30T17:41:37;9.82;;;5.82;;
28130;SDS011;15418;42.634;23.374;2022-09-30T17:44:22;19.77;;;5.70;;
28130;SDS011;15418;42.634;23.374;2022-09-30T17:46:49;18.23;;;6.68;;
28130;SDS011;15418;42.634;23.374;2022-09-30T17:49:42;13.73;;;6.60;;
28130;SDS011;15418;42.634;23.374;2022-09-30T17:52:13;8.55;;;4.88;;
28130;SDS011;15418;42.634;23.374;2022-09-30T17:54:45;11.02;;;4.80;;
28130;SDS011;15418;42.634;23.374;2022-09-30T17:57:22;9.38;;;4.85;;
28130;SDS011;15418;42.634;23.374;2022-09-30T17:59:49;9.25;;;4.32;;
28130;SDS011;15418;42.634;23.374;2022-09-30T18:02:14;15.00;;;4.68;;
28130;SDS011;15418;42.634;23.374;2022-09-30T18:04:41;12.43;;;3.67;;
28130;SDS011;15418;42.634;23.374;2022-09-30T18:07:13;9.82;;;4.38;;
28130;SDS011;15418;42.634;23.374;2022-09-30T18:12:15;9.63;;;3.55;;
28130;SDS011;15418;42.634;23.374;2022-09-30T18:14:46;7.45;;;3.78;;
28130;SDS011;15418;42.634;23.374;2022-09-30T18:17:32;10.82;;;3.50;;
28130;SDS011;15418;42.634;23.374;2022-09-30T18:19:58;12.60;;;4.70;;
28130;SDS011;15418;42.634;23.374;2022-09-30T18:22:32;19.20;;;6.03;;
28130;SDS011;15418;42.634;23.374;2022-09-30T18:25:31;17.65;;;6.50;;
28130;SDS011;15418;42.634;23.374;2022-09-30T18:28:00;14.38;;;5.65;;
28130;SDS011;15418;42.634;23.374;2022-09-30T18:30:26;11.27;;;5.15;;
28130;SDS011;15418;42.634;23.374;2022-09-30T18:32:53;15.88;;;7.03;;
28130;SDS011;15418;42.634;23.374;2022-09-30T18:35:23;23.10;;;7.72;;
28130;SDS011;15418;42.634;23.374;2022-09-30T18:37:49;18.65;;;6.22;;
28130;SDS011;15418;42.634;23.374;2022-09-30T18:40:16;14.70;;;4.25;;
28130;SDS011;15418;42.634;23.374;2022-09-30T18:42:51;16.27;;;5.10;;
28130;SDS011;15418;42.634;23.374;2022-09-30T18:48:33;15.18;;;4.45;;
28130;SDS011;15418;42.634;23.374;2022-09-30T18:51:05;15.73;;;5.85;;
28130;SDS011;15418;42.634;23.374;2022-09-30T18:53:32;12.18;;;4.47;;
28130;SDS011;15418;42.634;23.374;2022-09-30T18:55:59;6.93;;;3.42;;
28130;SDS011;15418;42.634;23.374;2022-09-30T18:58:31;5.38;;;3.42;;
28130;SDS011;15418;42.634;23.374;2022-09-30T19:01:03;7.32;;;3.33;;
28130;SDS011;15418;42.634;23.374;2022-09-30T19:10:06;5.60;;;2.95;;
28130;SDS011;15418;42.634;23.374;2022-09-30T19:12:39;12.25;;;3.53;;
28130;SDS011;15418;42.634;23.374;2022-09-30T19:15:09;13.05;;;5.45;;
28130;SDS011;15418;42.634;23.374;2022-09-30T19:17:41;11.63;;;5.95;;
28130;SDS011;15418;42.634;23.374;2022-09-30T19:20:08;8.43;;;4.65;;
28130;SDS011;15418;42.634;23.374;2022-09-30T19:22:35;6.15;;;3.20;;
28130;SDS011;15418;42.634;23.374;2022-09-30T19:25:24;10.20;;;3.67;;
28130;SDS011;15418;42.634;23.374;2022-09-30T19:27:51;7.32;;;3.00;;
28130;SDS011;15418;42.634;23.374;2022-09-30T19:30:22;6.63;;;3.33;;
28130;SDS011;15418;42.634;23.374;2022-09-30T19:32:56;5.20;;;3.33;;
28130;SDS011;15418;42.634;23.374;2022-09-30T19:36:04;7.90;;;3.58;;
28130;SDS011;15418;42.634;23.374;2022-09-30T19:38:33;11.15;;;4.90;;
28130;SDS011;15418;42.634;23.374;2022-09-30T19:41:04;13.73;;;4.20;;
28130;SDS011;15418;42.634;23.374;2022-09-30T19:43:56;11.07;;;4.10;;
28130;SDS011;15418;42.634;23.374;2022-09-30T19:49:59;9.45;;;3.80;;
28130;SDS011;15418;42.634;23.374;2022-09-30T19:52:29;8.77;;;4.25;;
28130;SDS011;15418;42.634;23.374;2022-09-30T19:54:58;8.35;;;3.80;;
28130;SDS011;15418;42.634;23.374;2022-09-30T19:57:46;9.90;;;4.18;;
28130;SDS011;15418;42.634;23.374;2022-09-30T20:00:12;9.48;;;4.57;;
28130;SDS011;15418;42.634;23.374;2022-09-30T20:02:43;11.05;;;4.50;;
28130;SDS011;15418;42.634;23.374;2022-09-30T20:05:11;10.38;;;4.05;;
28130;SDS011;15418;42.634;23.374;2022-09-30T20:07:37;10.73;;;4.60;;
28130;SDS011;15418;42.634;23.374;2022-09-30T20:10:03;10.60;;;4.65;;
28130;SDS011;15418;42.634;23.374;2022-09-30T20:12:33;13.57;;;4.72;;
28130;SDS011;15418;42.634;23.374;2022-09-30T20:20:34;16.92;;;5.28;;
28130;SDS011;15418;42.634;23.374;2022-09-30T20:23:01;11.52;;;5.68;;
28130;SDS011;15418;42.634;23.374;2022-09-30T20:25:27;13.65;;;5.43;;
28130;SDS011;15418;42.634;23.374;2022-09-30T20:27:54;18.00;;;6.00;;
28130;SDS011;15418;42.634;23.374;2022-09-30T20:30:20;14.40;;;4.95;;
28130;SDS011;15418;42.634;23.374;2022-09-30T20:32:45;17.05;;;4.90;;
28130;SDS011;15418;42.634;23.374;2022-09-30T20:35:10;18.65;;;9.00;;
28130;SDS011;15418;42.634;23.374;2022-09-30T20:37:36;19.50;;;6.78;;
28130;SDS011;15418;42.634;23.374;2022-09-30T20:40:03;14.57;;;6.03;;
28130;SDS011;15418;42.634;23.374;2022-09-30T20:42:30;12.85;;;5.10;;
28130;SDS011;15418;42.634;23.374;2022-09-30T20:44:56;13.88;;;5.95;;
28130;SDS011;15418;42.634;23.374;2022-09-30T20:47:37;10.60;;;5.53;;
28130;SDS011;15418;42.634;23.374;2022-09-30T20:50:07;9.82;;;5.85;;